sensor_id;sensor_type;location;lat;lon;timestamp;pressure;altitude;pressure_sealevel;temperature;humidity
15568;BME280;7885;42.596;23.044;2024-03-29T00:01:09;92752.06;;;13.03;59.40
15568;BME280;7885;42.596;23.044;2024-03-29T00:03:35;92746.88;;;13.08;59.12
15568;BME280;7885;42.596;23.044;2024-03-29T00:06:01;92753.53;;;13.07;59.38
15568;BME280;7885;42.596;23.044;2024-03-29T00:08:26;92767.97;;;13.08;58.78
15568;BME280;7885;42.596;23.044;2024-03-29T00:10:53;92770.16;;;13.20;58.15
15568;BME280;7885;42.596;23.044;2024-03-29T00:13:19;92767.38;;;13.24;57.72
15568;BME280;7885;42.596;23.044;2024-03-29T00:15:45;92771.63;;;13.25;58.94
15568;BME280;7885;42.596;23.044;2024-03-29T00:18:11;92771.81;;;13.14;63.19
15568;BME280;7885;42.596;23.044;2024-03-29T00:20:37;92765.91;;;12.89;63.90
15568;BME280;7885;42.596;23.044;2024-03-29T00:23:02;92771.09;;;12.80;65.14
15568;BME280;7885;42.596;23.044;2024-03-29T00:25:28;92777.97;;;12.64;65.71
15568;BME280;7885;42.596;23.044;2024-03-29T00:27:55;92787.41;;;12.56;65.73
15568;BME280;7885;42.596;23.044;2024-03-29T00:30:21;92765.03;;;12.38;66.10
15568;BME280;7885;42.596;23.044;2024-03-29T00:32:47;92792.31;;;12.38;66.79
15568;BME280;7885;42.596;23.044;2024-03-29T00:35:12;92781.47;;;12.31;67.01
15568;BME280;7885;42.596;23.044;2024-03-29T00:37:38;92772.28;;;12.18;67.09
15568;BME280;7885;42.596;23.044;2024-03-29T00:40:05;92791.84;;;12.13;67.44
15568;BME280;7885;42.596;23.044;2024-03-29T00:42:31;92789.50;;;12.11;67.42
15568;BME280;7885;42.596;23.044;2024-03-29T00:44:58;92794.94;;;12.15;68.94
15568;BME280;7885;42.596;23.044;2024-03-29T00:47:23;92792.97;;;12.15;69.22
15568;BME280;7885;42.596;23.044;2024-03-29T00:49:49;92799.22;;;12.16;69.23
15568;BME280;7885;42.596;23.044;2024-03-29T00:52:15;92800.38;;;12.15;69.60
15568;BME280;7885;42.596;23.044;2024-03-29T00:54:40;92804.44;;;12.00;69.86
15568;BME280;7885;42.596;23.044;2024-03-29T00:57:06;92801.06;;;11.89;70.42
15568;BME280;7885;42.596;23.044;2024-03-29T00:59:32;92803.78;;;11.89;70.26
15568;BME280;7885;42.596;23.044;2024-03-29T01:01:59;92799.13;;;11.89;69.66
15568;BME280;7885;42.596;23.044;2024-03-29T01:04:25;92803.13;;;11.78;70.22
15568;BME280;7885;42.596;23.044;2024-03-29T01:06:50;92794.56;;;11.76;70.44
15568;BME280;7885;42.596;23.044;2024-03-29T01:09:16;92809.75;;;11.77;71.20
15568;BME280;7885;42.596;23.044;2024-03-29T01:11:42;92814.84;;;11.75;70.67
15568;BME280;7885;42.596;23.044;2024-03-29T01:14:08;92809.41;;;11.71;71.38
15568;BME280;7885;42.596;23.044;2024-03-29T01:16:33;92810.19;;;11.68;72.02
15568;BME280;7885;42.596;23.044;2024-03-29T01:19:00;92814.13;;;11.63;71.84
15568;BME280;7885;42.596;23.044;2024-03-29T01:21:26;92816.47;;;11.61;71.88
15568;BME280;7885;42.596;23.044;2024-03-29T01:23:52;92810.28;;;11.57;72.08
15568;BME280;7885;42.596;23.044;2024-03-29T01:26:18;92816.88;;;11.60;71.79
15568;BME280;7885;42.596;23.044;2024-03-29T01:28:44;92809.28;;;11.37;72.75
15568;BME280;7885;42.596;23.044;2024-03-29T01:31:10;92819.03;;;11.31;72.64
15568;BME280;7885;42.596;23.044;2024-03-29T01:33:36;92818.72;;;11.22;73.16
15568;BME280;7885;42.596;23.044;2024-03-29T01:36:04;92812.94;;;11.17;73.33
15568;BME280;7885;42.596;23.044;2024-03-29T01:38:30;92816.91;;;11.05;73.57
15568;BME280;7885;42.596;23.044;2024-03-29T01:40:56;92811.53;;;10.94;74.19
15568;BME280;7885;42.596;23.044;2024-03-29T01:43:22;92822.97;;;10.72;73.94
15568;BME280;7885;42.596;23.044;2024-03-29T01:45:52;92822.56;;;10.70;75.11
15568;BME280;7885;42.596;23.044;2024-03-29T01:48:20;92809.44;;;10.50;75.69
15568;BME280;7885;42.596;23.044;2024-03-29T01:50:48;92809.56;;;10.26;76.56
15568;BME280;7885;42.596;23.044;2024-03-29T01:53:18;92797.53;;;10.12;76.83
15568;BME280;7885;42.596;23.044;2024-03-29T01:55:45;92811.47;;;10.32;76.72
15568;BME280;7885;42.596;23.044;2024-03-29T01:58:12;92795.50;;;10.38;76.22
15568;BME280;7885;42.596;23.044;2024-03-29T02:00:47;92817.22;;;10.45;76.69
15568;BME280;7885;42.596;23.044;2024-03-29T02:03:15;92812.25;;;10.33;76.70
15568;BME280;7885;42.596;23.044;2024-03-29T02:05:43;92817.66;;;10.43;76.20
15568;BME280;7885;42.596;23.044;2024-03-29T02:08:10;92836.25;;;10.52;76.24
15568;BME280;7885;42.596;23.044;2024-03-29T02:10:38;92837.44;;;10.47;76.72
15568;BME280;7885;42.596;23.044;2024-03-29T02:13:05;92850.69;;;10.42;76.62
15568;BME280;7885;42.596;23.044;2024-03-29T02:15:32;92860.03;;;10.41;76.77
15568;BME280;7885;42.596;23.044;2024-03-29T02:17:59;92870.94;;;10.34;76.37
15568;BME280;7885;42.596;23.044;2024-03-29T02:20:25;92876.75;;;10.32;77.11
15568;BME280;7885;42.596;23.044;2024-03-29T02:22:54;92885.69;;;10.33;76.44
15568;BME280;7885;42.596;23.044;2024-03-29T02:25:22;92885.72;;;10.26;78.11
15568;BME280;7885;42.596;23.044;2024-03-29T02:27:49;92886.50;;;10.12;78.89
15568;BME280;7885;42.596;23.044;2024-03-29T02:30:17;92899.31;;;10.08;80.38
15568;BME280;7885;42.596;23.044;2024-03-29T02:32:43;92894.28;;;10.10;80.23
15568;BME280;7885;42.596;23.044;2024-03-29T02:35:10;92898.53;;;10.18;80.11
15568;BME280;7885;42.596;23.044;2024-03-29T02:37:37;92905.91;;;10.28;79.85
15568;BME280;7885;42.596;23.044;2024-03-29T02:40:04;92918.34;;;10.33;79.50
15568;BME280;7885;42.596;23.044;2024-03-29T02:42:35;92921.44;;;10.31;80.33
15568;BME280;7885;42.596;23.044;2024-03-29T02:45:02;92921.84;;;10.30;79.92
15568;BME280;7885;42.596;23.044;2024-03-29T02:47:29;92928.09;;;10.16;79.36
15568;BME280;7885;42.596;23.044;2024-03-29T02:49:55;92936.22;;;10.12;79.44
15568;BME280;7885;42.596;23.044;2024-03-29T02:52:22;92924.19;;;9.82;79.40
15568;BME280;7885;42.596;23.044;2024-03-29T02:54:48;92934.28;;;9.71;81.37
15568;BME280;7885;42.596;23.044;2024-03-29T02:57:15;92919.53;;;9.57;81.44
15568;BME280;7885;42.596;23.044;2024-03-29T02:59:42;92924.19;;;9.39;82.11
15568;BME280;7885;42.596;23.044;2024-03-29T03:02:09;92927.28;;;9.34;82.24
15568;BME280;7885;42.596;23.044;2024-03-29T03:04:35;92919.16;;;9.34;82.51
15568;BME280;7885;42.596;23.044;2024-03-29T03:07:01;92926.91;;;9.39;82.64
15568;BME280;7885;42.596;23.044;2024-03-29T03:09:42;92933.88;;;9.33;82.61
15568;BME280;7885;42.596;23.044;2024-03-29T03:12:26;92951.72;;;9.48;82.95
15568;BME280;7885;42.596;23.044;2024-03-29T03:14:54;92957.16;;;9.48;83.40
15568;BME280;7885;42.596;23.044;2024-03-29T03:17:20;92950.97;;;9.44;83.79
15568;BME280;7885;42.596;23.044;2024-03-29T03:19:47;92959.44;;;9.14;84.02
15568;BME280;7885;42.596;23.044;2024-03-29T03:22:13;92966.25;;;8.70;86.31
15568;BME280;7885;42.596;23.044;2024-03-29T03:24:40;92978.19;;;8.54;88.14
15568;BME280;7885;42.596;23.044;2024-03-29T03:27:06;92981.69;;;8.58;87.81
15568;BME280;7885;42.596;23.044;2024-03-29T03:29:33;92975.53;;;8.65;87.72
15568;BME280;7885;42.596;23.044;2024-03-29T03:32:00;92972.47;;;8.77;87.31
15568;BME280;7885;42.596;23.044;2024-03-29T03:34:26;92984.19;;;8.92;86.38
15568;BME280;7885;42.596;23.044;2024-03-29T03:36:52;92990.44;;;9.03;86.03
15568;BME280;7885;42.596;23.044;2024-03-29T03:39:19;93002.84;;;9.07;85.92
15568;BME280;7885;42.596;23.044;2024-03-29T03:41:44;92984.22;;;8.99;85.91
15568;BME280;7885;42.596;23.044;2024-03-29T03:44:12;93005.19;;;9.09;85.82
15568;BME280;7885;42.596;23.044;2024-03-29T03:46:38;93027.72;;;9.20;85.13
15568;BME280;7885;42.596;23.044;2024-03-29T03:49:06;93016.88;;;9.20;85.80
15568;BME280;7885;42.596;23.044;2024-03-29T03:51:31;93013.38;;;9.23;86.13
15568;BME280;7885;42.596;23.044;2024-03-29T03:53:58;93010.19;;;9.07;85.88
15568;BME280;7885;42.596;23.044;2024-03-29T03:56:24;93002.38;;;8.88;86.65
15568;BME280;7885;42.596;23.044;2024-03-29T03:58:50;93025.69;;;8.96;86.54
15568;BME280;7885;42.596;23.044;2024-03-29T04:01:17;93026.06;;;8.98;86.42
15568;BME280;7885;42.596;23.044;2024-03-29T04:03:43;93020.66;;;9.01;86.05
15568;BME280;7885;42.596;23.044;2024-03-29T04:06:11;93024.19;;;9.09;85.60
15568;BME280;7885;42.596;23.044;2024-03-29T04:08:37;93033.16;;;9.17;85.61
15568;BME280;7885;42.596;23.044;2024-03-29T04:11:04;93044.75;;;9.17;84.02
15568;BME280;7885;42.596;23.044;2024-03-29T04:13:29;93057.56;;;9.13;84.05
15568;BME280;7885;42.596;23.044;2024-03-29T04:16:01;93056.75;;;9.05;84.67
15568;BME280;7885;42.596;23.044;2024-03-29T04:18:27;93048.91;;;8.93;83.78
15568;BME280;7885;42.596;23.044;2024-03-29T04:20:56;93045.63;;;8.59;86.05
15568;BME280;7885;42.596;23.044;2024-03-29T04:23:23;93051.44;;;8.54;86.71
15568;BME280;7885;42.596;23.044;2024-03-29T04:25:51;93050.69;;;8.57;86.42
15568;BME280;7885;42.596;23.044;2024-03-29T04:28:17;93053.78;;;8.59;86.46
15568;BME280;7885;42.596;23.044;2024-03-29T04:30:51;93069.38;;;8.73;85.97
15568;BME280;7885;42.596;23.044;2024-03-29T04:33:17;93072.88;;;8.77;85.73
15568;BME280;7885;42.596;23.044;2024-03-29T04:35:53;93074.81;;;8.77;85.96
15568;BME280;7885;42.596;23.044;2024-03-29T04:38:20;93076.38;;;8.78;86.49
15568;BME280;7885;42.596;23.044;2024-03-29T04:40:48;93078.31;;;8.81;86.59
15568;BME280;7885;42.596;23.044;2024-03-29T04:43:15;93078.75;;;8.86;86.02
15568;BME280;7885;42.596;23.044;2024-03-29T04:52:40;93099.16;;;8.66;88.42
15568;BME280;7885;42.596;23.044;2024-03-29T04:55:07;93101.91;;;8.73;87.93
15568;BME280;7885;42.596;23.044;2024-03-29T04:57:35;93104.72;;;8.87;87.50
15568;BME280;7885;42.596;23.044;2024-03-29T05:00:03;93104.44;;;9.03;86.98
15568;BME280;7885;42.596;23.044;2024-03-29T05:02:29;93106.03;;;9.11;86.86
15568;BME280;7885;42.596;23.044;2024-03-29T05:04:56;93111.50;;;9.22;86.25
15568;BME280;7885;42.596;23.044;2024-03-29T05:07:23;93097.56;;;9.23;85.76
15568;BME280;7885;42.596;23.044;2024-03-29T05:09:50;93124.81;;;9.41;84.93
15568;BME280;7885;42.596;23.044;2024-03-29T05:12:16;93116.25;;;9.42;84.49
15568;BME280;7885;42.596;23.044;2024-03-29T05:14:45;93115.94;;;9.58;84.20
15568;BME280;7885;42.596;23.044;2024-03-29T05:17:11;93110.13;;;9.67;83.34
15568;BME280;7885;42.596;23.044;2024-03-29T05:19:38;93113.66;;;9.74;83.66
15568;BME280;7885;42.596;23.044;2024-03-29T05:22:05;93121.81;;;9.78;84.02
15568;BME280;7885;42.596;23.044;2024-03-29T05:24:31;93124.16;;;9.90;83.80
15568;BME280;7885;42.596;23.044;2024-03-29T05:26:58;93132.34;;;10.00;83.42
15568;BME280;7885;42.596;23.044;2024-03-29T05:29:25;93133.56;;;10.03;82.83
15568;BME280;7885;42.596;23.044;2024-03-29T05:31:53;93141.34;;;10.15;82.64
15568;BME280;7885;42.596;23.044;2024-03-29T05:34:20;93146.03;;;10.18;82.44
15568;BME280;7885;42.596;23.044;2024-03-29T05:36:46;93144.47;;;10.17;81.95
15568;BME280;7885;42.596;23.044;2024-03-29T05:39:13;93138.19;;;9.92;84.08
15568;BME280;7885;42.596;23.044;2024-03-29T05:41:40;93143.22;;;9.97;83.43
15568;BME280;7885;42.596;23.044;2024-03-29T05:44:07;93158.75;;;10.00;83.96
15568;BME280;7885;42.596;23.044;2024-03-29T05:46:34;93149.88;;;10.10;83.71
15568;BME280;7885;42.596;23.044;2024-03-29T05:49:02;93147.59;;;10.26;83.28
15568;BME280;7885;42.596;23.044;2024-03-29T05:51:29;93155.38;;;10.38;83.27
15568;BME280;7885;42.596;23.044;2024-03-29T05:53:55;93158.53;;;10.54;83.00
15568;BME280;7885;42.596;23.044;2024-03-29T05:56:22;93163.97;;;10.65;82.17
15568;BME280;7885;42.596;23.044;2024-03-29T05:58:49;93179.53;;;10.86;81.98
15568;BME280;7885;42.596;23.044;2024-03-29T06:01:16;93176.41;;;11.05;81.89
15568;BME280;7885;42.596;23.044;2024-03-29T06:03:42;93177.16;;;11.23;81.42
15568;BME280;7885;42.596;23.044;2024-03-29T06:06:10;93179.06;;;11.40;80.61
15568;BME280;7885;42.596;23.044;2024-03-29T06:08:43;93174.75;;;11.50;79.55
15568;BME280;7885;42.596;23.044;2024-03-29T06:11:10;93169.66;;;11.62;78.54
15568;BME280;7885;42.596;23.044;2024-03-29T06:13:36;93162.25;;;11.74;78.41
15568;BME280;7885;42.596;23.044;2024-03-29T06:16:21;93169.59;;;11.87;77.49
15568;BME280;7885;42.596;23.044;2024-03-29T06:19:05;93145.88;;;11.81;76.22
15568;BME280;7885;42.596;23.044;2024-03-29T06:21:33;93166.75;;;12.12;76.48
15568;BME280;7885;42.596;23.044;2024-03-29T06:24:04;93174.88;;;12.26;76.31
15568;BME280;7885;42.596;23.044;2024-03-29T06:26:31;93169.34;;;12.40;75.11
15568;BME280;7885;42.596;23.044;2024-03-29T06:28:58;93167.25;;;12.58;75.21
15568;BME280;7885;42.596;23.044;2024-03-29T06:31:24;93173.38;;;12.77;74.07
15568;BME280;7885;42.596;23.044;2024-03-29T06:33:51;93177.63;;;12.85;72.92
15568;BME280;7885;42.596;23.044;2024-03-29T06:36:18;93172.03;;;12.99;73.14
15568;BME280;7885;42.596;23.044;2024-03-29T06:38:46;93162.94;;;13.16;72.65
15568;BME280;7885;42.596;23.044;2024-03-29T06:41:14;93167.88;;;13.28;71.82
15568;BME280;7885;42.596;23.044;2024-03-29T06:43:42;93168.94;;;13.41;72.06
15568;BME280;7885;42.596;23.044;2024-03-29T06:46:09;93171.91;;;13.57;72.41
15568;BME280;7885;42.596;23.044;2024-03-29T06:48:36;93159.66;;;13.69;72.15
15568;BME280;7885;42.596;23.044;2024-03-29T06:51:04;93171.50;;;13.93;70.45
15568;BME280;7885;42.596;23.044;2024-03-29T06:53:30;93175.28;;;14.06;69.47
15568;BME280;7885;42.596;23.044;2024-03-29T06:56:00;93171.63;;;14.16;68.93
15568;BME280;7885;42.596;23.044;2024-03-29T06:58:26;93181.56;;;14.33;68.56
15568;BME280;7885;42.596;23.044;2024-03-29T07:00:53;93179.84;;;14.46;67.01
15568;BME280;7885;42.596;23.044;2024-03-29T07:03:20;93176.91;;;14.60;66.39
15568;BME280;7885;42.596;23.044;2024-03-29T07:05:47;93179.81;;;14.77;65.34
15568;BME280;7885;42.596;23.044;2024-03-29T07:08:13;93187.47;;;14.89;63.08
15568;BME280;7885;42.596;23.044;2024-03-29T07:10:40;93185.03;;;14.94;61.57
15568;BME280;7885;42.596;23.044;2024-03-29T07:13:08;93197.16;;;15.20;63.41
15568;BME280;7885;42.596;23.044;2024-03-29T07:15:36;93200.03;;;15.36;60.90
15568;BME280;7885;42.596;23.044;2024-03-29T07:18:02;93194.53;;;15.59;59.48
15568;BME280;7885;42.596;23.044;2024-03-29T07:20:29;93185.59;;;15.79;58.51
15568;BME280;7885;42.596;23.044;2024-03-29T07:22:56;93190.31;;;15.98;56.29
15568;BME280;7885;42.596;23.044;2024-03-29T07:25:23;93194.69;;;16.15;56.06
15568;BME280;7885;42.596;23.044;2024-03-29T07:27:51;93189.94;;;16.35;55.14
15568;BME280;7885;42.596;23.044;2024-03-29T07:30:20;93190.34;;;16.53;55.65
15568;BME280;7885;42.596;23.044;2024-03-29T07:32:46;93197.81;;;16.73;55.50
15568;BME280;7885;42.596;23.044;2024-03-29T07:35:13;93197.69;;;16.96;54.04
15568;BME280;7885;42.596;23.044;2024-03-29T07:37:40;93190.69;;;17.27;53.56
15568;BME280;7885;42.596;23.044;2024-03-29T07:40:11;93195.91;;;17.70;52.40
15568;BME280;7885;42.596;23.044;2024-03-29T07:42:38;93199.84;;;18.14;49.28
15568;BME280;7885;42.596;23.044;2024-03-29T07:45:05;93192.88;;;18.54;47.98
15568;BME280;7885;42.596;23.044;2024-03-29T07:47:33;93203.28;;;19.26;46.47
15568;BME280;7885;42.596;23.044;2024-03-29T07:50:00;93200.09;;;20.34;42.61
15568;BME280;7885;42.596;23.044;2024-03-29T07:52:27;93194.13;;;22.35;37.55
15568;BME280;7885;42.596;23.044;2024-03-29T07:54:55;93195.72;;;24.22;31.88
15568;BME280;7885;42.596;23.044;2024-03-29T07:57:22;93201.81;;;25.32;29.02
15568;BME280;7885;42.596;23.044;2024-03-29T07:59:50;93190.94;;;26.33;27.44
15568;BME280;7885;42.596;23.044;2024-03-29T08:02:17;93194.59;;;27.99;25.73
15568;BME280;7885;42.596;23.044;2024-03-29T08:04:45;93206.31;;;29.22;23.24
15568;BME280;7885;42.596;23.044;2024-03-29T08:07:12;93205.56;;;30.43;22.43
15568;BME280;7885;42.596;23.044;2024-03-29T08:09:39;93211.44;;;31.55;21.31
15568;BME280;7885;42.596;23.044;2024-03-29T08:12:06;93213.50;;;33.48;19.64
15568;BME280;7885;42.596;23.044;2024-03-29T08:14:32;93218.22;;;35.07;18.09
15568;BME280;7885;42.596;23.044;2024-03-29T08:16:59;93201.69;;;36.54;17.66
15568;BME280;7885;42.596;23.044;2024-03-29T08:19:30;93199.22;;;38.09;16.15
15568;BME280;7885;42.596;23.044;2024-03-29T08:21:58;93200.50;;;37.93;15.07
15568;BME280;7885;42.596;23.044;2024-03-29T08:24:26;93199.25;;;37.51;14.99
15568;BME280;7885;42.596;23.044;2024-03-29T08:26:53;93213.09;;;38.51;15.31
15568;BME280;7885;42.596;23.044;2024-03-29T08:29:19;93195.31;;;39.20;14.33
15568;BME280;7885;42.596;23.044;2024-03-29T08:31:46;93192.78;;;38.69;14.17
15568;BME280;7885;42.596;23.044;2024-03-29T08:34:13;93193.63;;;39.32;14.23
15568;BME280;7885;42.596;23.044;2024-03-29T08:36:40;93194.47;;;38.95;14.02
15568;BME280;7885;42.596;23.044;2024-03-29T08:39:08;93189.06;;;36.91;15.33
15568;BME280;7885;42.596;23.044;2024-03-29T08:41:35;93178.84;;;36.60;15.78
15568;BME280;7885;42.596;23.044;2024-03-29T08:44:01;93172.69;;;36.48;15.92
15568;BME280;7885;42.596;23.044;2024-03-29T08:46:28;93180.34;;;35.10;16.15
15568;BME280;7885;42.596;23.044;2024-03-29T08:48:55;93171.22;;;35.04;16.24
15568;BME280;7885;42.596;23.044;2024-03-29T08:51:22;93175.09;;;35.74;15.88
15568;BME280;7885;42.596;23.044;2024-03-29T08:53:48;93168.03;;;37.58;15.19
15568;BME280;7885;42.596;23.044;2024-03-29T08:56:17;93156.16;;;38.96;14.01
15568;BME280;7885;42.596;23.044;2024-03-29T08:58:43;93173.78;;;40.22;13.40
15568;BME280;7885;42.596;23.044;2024-03-29T09:04:32;93145.66;;;41.54;12.23
15568;BME280;7885;42.596;23.044;2024-03-29T09:07:00;93159.38;;;41.38;12.04
15568;BME280;7885;42.596;23.044;2024-03-29T09:09:28;93154.91;;;41.27;12.29
15568;BME280;7885;42.596;23.044;2024-03-29T09:11:56;93153.81;;;42.11;12.31
15568;BME280;7885;42.596;23.044;2024-03-29T09:14:23;93155.63;;;42.43;11.77
15568;BME280;7885;42.596;23.044;2024-03-29T09:16:50;93147.38;;;43.12;12.03
15568;BME280;7885;42.596;23.044;2024-03-29T09:19:17;93144.22;;;43.27;10.36
15568;BME280;7885;42.596;23.044;2024-03-29T09:21:45;93146.91;;;43.63;10.44
15568;BME280;7885;42.596;23.044;2024-03-29T09:24:11;93148.88;;;43.22;10.44
15568;BME280;7885;42.596;23.044;2024-03-29T09:26:38;93141.34;;;43.17;10.09
15568;BME280;7885;42.596;23.044;2024-03-29T09:29:07;93132.88;;;43.39;10.00
15568;BME280;7885;42.596;23.044;2024-03-29T09:31:34;93133.31;;;43.83;10.45
15568;BME280;7885;42.596;23.044;2024-03-29T09:34:01;93133.63;;;44.28;10.57
15568;BME280;7885;42.596;23.044;2024-03-29T09:36:28;93117.75;;;44.67;10.51
15568;BME280;7885;42.596;23.044;2024-03-29T09:38:54;93120.91;;;44.92;9.93
15568;BME280;7885;42.596;23.044;2024-03-29T09:41:23;93117.91;;;45.11;9.96
15568;BME280;7885;42.596;23.044;2024-03-29T09:43:52;93116.25;;;45.51;9.75
15568;BME280;7885;42.596;23.044;2024-03-29T09:46:23;93106.91;;;44.56;9.50
15568;BME280;7885;42.596;23.044;2024-03-29T09:48:53;93095.47;;;43.37;10.09
15568;BME280;7885;42.596;23.044;2024-03-29T09:51:21;93098.22;;;44.04;10.38
15568;BME280;7885;42.596;23.044;2024-03-29T09:53:48;93096.97;;;44.78;10.61
15568;BME280;7885;42.596;23.044;2024-03-29T09:56:16;93092.81;;;45.12;10.16
15568;BME280;7885;42.596;23.044;2024-03-29T09:58:43;93079.81;;;44.38;10.36
15568;BME280;7885;42.596;23.044;2024-03-29T10:01:09;93075.03;;;44.31;10.77
15568;BME280;7885;42.596;23.044;2024-03-29T10:03:39;93073.94;;;45.09;10.06
15568;BME280;7885;42.596;23.044;2024-03-29T10:06:07;93086.50;;;44.31;10.46
15568;BME280;7885;42.596;23.044;2024-03-29T10:08:35;93087.06;;;43.00;10.36
15568;BME280;7885;42.596;23.044;2024-03-29T10:11:02;93079.94;;;42.17;11.33
15568;BME280;7885;42.596;23.044;2024-03-29T10:13:29;93081.91;;;43.27;10.99
15568;BME280;7885;42.596;23.044;2024-03-29T10:15:56;93060.13;;;43.82;10.90
15568;BME280;7885;42.596;23.044;2024-03-29T10:18:24;93076.41;;;44.51;10.41
15568;BME280;7885;42.596;23.044;2024-03-29T10:21:00;93080.91;;;44.85;10.63
15568;BME280;7885;42.596;23.044;2024-03-29T10:23:27;93073.69;;;44.53;10.79
15568;BME280;7885;42.596;23.044;2024-03-29T10:25:54;93077.53;;;44.67;10.53
15568;BME280;7885;42.596;23.044;2024-03-29T10:28:21;93071.22;;;43.97;10.45
15568;BME280;7885;42.596;23.044;2024-03-29T10:30:48;93074.38;;;43.42;10.75
15568;BME280;7885;42.596;23.044;2024-03-29T10:33:16;93070.00;;;44.00;11.02
15568;BME280;7885;42.596;23.044;2024-03-29T10:35:43;93067.00;;;43.98;10.73
15568;BME280;7885;42.596;23.044;2024-03-29T10:38:11;93060.25;;;43.74;11.18
15568;BME280;7885;42.596;23.044;2024-03-29T10:40:39;93064.44;;;43.04;10.67
15568;BME280;7885;42.596;23.044;2024-03-29T10:43:08;93061.34;;;43.60;10.64
15568;BME280;7885;42.596;23.044;2024-03-29T10:45:38;93056.16;;;43.87;10.66
15568;BME280;7885;42.596;23.044;2024-03-29T10:48:06;93058.69;;;44.02;10.83
15568;BME280;7885;42.596;23.044;2024-03-29T10:50:35;93058.06;;;43.35;11.02
15568;BME280;7885;42.596;23.044;2024-03-29T10:53:03;93051.00;;;42.97;11.23
15568;BME280;7885;42.596;23.044;2024-03-29T10:55:33;93048.06;;;42.40;11.23
15568;BME280;7885;42.596;23.044;2024-03-29T10:58:01;93059.34;;;42.28;12.23
15568;BME280;7885;42.596;23.044;2024-03-29T11:00:29;93053.91;;;42.22;11.51
15568;BME280;7885;42.596;23.044;2024-03-29T11:03:09;93051.91;;;41.79;11.74
15568;BME280;7885;42.596;23.044;2024-03-29T11:05:42;93035.69;;;42.27;11.58
15568;BME280;7885;42.596;23.044;2024-03-29T11:08:12;93042.50;;;42.42;12.00
15568;BME280;7885;42.596;23.044;2024-03-29T11:10:42;93040.75;;;42.85;11.58
15568;BME280;7885;42.596;23.044;2024-03-29T11:13:19;93044.50;;;42.97;11.54
15568;BME280;7885;42.596;23.044;2024-03-29T11:15:49;93042.88;;;42.84;11.16
15568;BME280;7885;42.596;23.044;2024-03-29T11:18:17;93031.91;;;41.79;10.62
15568;BME280;7885;42.596;23.044;2024-03-29T11:20:45;93014.34;;;40.33;12.03
15568;BME280;7885;42.596;23.044;2024-03-29T11:23:17;93002.63;;;39.23;12.51
15568;BME280;7885;42.596;23.044;2024-03-29T11:25:48;93015.97;;;37.95;12.80
15568;BME280;7885;42.596;23.044;2024-03-29T11:28:22;93017.03;;;37.16;12.92
15568;BME280;7885;42.596;23.044;2024-03-29T11:30:52;92974.44;;;36.14;12.79
15568;BME280;7885;42.596;23.044;2024-03-29T11:33:29;93007.72;;;34.42;13.04
15568;BME280;7885;42.596;23.044;2024-03-29T11:35:57;92999.28;;;33.77;13.60
15568;BME280;7885;42.596;23.044;2024-03-29T11:38:31;93001.16;;;33.29;14.50
15568;BME280;7885;42.596;23.044;2024-03-29T11:41:04;93006.00;;;32.97;15.32
15568;BME280;7885;42.596;23.044;2024-03-29T11:43:31;93006.53;;;32.02;16.14
15568;BME280;7885;42.596;23.044;2024-03-29T11:45:59;93001.44;;;30.16;16.66
15568;BME280;7885;42.596;23.044;2024-03-29T11:48:28;93003.91;;;29.56;18.63
15568;BME280;7885;42.596;23.044;2024-03-29T11:50:55;92995.75;;;28.25;19.13
15568;BME280;7885;42.596;23.044;2024-03-29T11:53:21;93001.50;;;27.94;18.74
15568;BME280;7885;42.596;23.044;2024-03-29T11:55:48;92992.50;;;28.43;18.59
15568;BME280;7885;42.596;23.044;2024-03-29T11:58:21;92982.56;;;28.59;18.76
15568;BME280;7885;42.596;23.044;2024-03-29T12:00:48;92982.59;;;28.81;20.12
15568;BME280;7885;42.596;23.044;2024-03-29T12:03:16;92983.84;;;28.86;19.57
15568;BME280;7885;42.596;23.044;2024-03-29T12:05:43;92993.31;;;28.72;19.66
15568;BME280;7885;42.596;23.044;2024-03-29T12:08:10;92986.63;;;29.36;18.41
15568;BME280;7885;42.596;23.044;2024-03-29T12:10:37;92988.16;;;30.11;18.41
15568;BME280;7885;42.596;23.044;2024-03-29T12:13:04;92985.97;;;30.39;18.32
15568;BME280;7885;42.596;23.044;2024-03-29T12:15:33;92962.41;;;30.53;18.14
15568;BME280;7885;42.596;23.044;2024-03-29T12:18:01;92985.16;;;29.98;17.80
15568;BME280;7885;42.596;23.044;2024-03-29T12:20:30;92981.28;;;29.21;18.93
15568;BME280;7885;42.596;23.044;2024-03-29T12:22:59;92989.44;;;29.19;19.93
15568;BME280;7885;42.596;23.044;2024-03-29T12:25:27;92959.66;;;28.44;19.82
15568;BME280;7885;42.596;23.044;2024-03-29T12:27:54;92979.78;;;28.87;20.31
15568;BME280;7885;42.596;23.044;2024-03-29T12:30:21;92977.47;;;28.63;23.67
15568;BME280;7885;42.596;23.044;2024-03-29T12:32:59;92979.50;;;29.35;20.01
15568;BME280;7885;42.596;23.044;2024-03-29T12:35:27;92964.41;;;29.54;19.77
15568;BME280;7885;42.596;23.044;2024-03-29T12:37:54;92971.63;;;29.33;19.81
15568;BME280;7885;42.596;23.044;2024-03-29T12:40:22;92961.84;;;29.56;19.48
15568;BME280;7885;42.596;23.044;2024-03-29T12:42:50;92972.00;;;29.71;20.03
15568;BME280;7885;42.596;23.044;2024-03-29T12:45:18;92970.56;;;29.47;21.41
15568;BME280;7885;42.596;23.044;2024-03-29T12:54:29;92956.19;;;27.79;21.47
15568;BME280;7885;42.596;23.044;2024-03-29T12:56:56;92944.38;;;28.39;20.88
15568;BME280;7885;42.596;23.044;2024-03-29T12:59:28;92954.56;;;28.98;20.71
15568;BME280;7885;42.596;23.044;2024-03-29T13:01:55;92938.50;;;29.26;19.94
15568;BME280;7885;42.596;23.044;2024-03-29T13:04:22;92956.19;;;29.68;20.28
15568;BME280;7885;42.596;23.044;2024-03-29T13:06:49;92954.81;;;29.05;20.59
15568;BME280;7885;42.596;23.044;2024-03-29T13:09:15;92926.78;;;29.11;20.14
15568;BME280;7885;42.596;23.044;2024-03-29T13:11:43;92950.94;;;29.36;20.81
15568;BME280;7885;42.596;23.044;2024-03-29T13:14:10;92930.31;;;29.28;20.42
15568;BME280;7885;42.596;23.044;2024-03-29T13:19:58;92942.34;;;29.92;19.91
15568;BME280;7885;42.596;23.044;2024-03-29T13:22:25;92923.44;;;29.29;19.68
15568;BME280;7885;42.596;23.044;2024-03-29T13:24:52;92940.81;;;28.33;20.54